sensor_id;sensor_type;location;lat;lon;timestamp;pressure;altitude;pressure_sealevel;temperature;humidity
4273;BME280;63887;53.656;9.810;2023-05-03T00:01:52;102780.94;;;4.69;80.16
4273;BME280;63887;53.656;9.810;2023-05-03T00:04:18;102785.28;;;4.61;81.60
4273;BME280;63887;53.656;9.810;2023-05-03T00:06:45;102787.84;;;4.47;82.11
4273;BME280;63887;53.656;9.810;2023-05-03T00:09:13;102784.34;;;4.42;82.65
4273;BME280;63887;53.656;9.810;2023-05-03T00:11:40;102790.38;;;4.40;82.83
4273;BME280;63887;53.656;9.810;2023-05-03T00:14:06;102784.31;;;4.38;82.73
4273;BME280;63887;53.656;9.810;2023-05-03T00:16:32;102789.47;;;4.30;83.10
4273;BME280;63887;53.656;9.810;2023-05-03T00:18:59;102788.56;;;4.14;83.87
4273;BME280;63887;53.656;9.810;2023-05-03T00:21:25;102785.16;;;4.31;82.75
4273;BME280;63887;53.656;9.810;2023-05-03T00:23:52;102790.31;;;4.17;83.35
4273;BME280;63887;53.656;9.810;2023-05-03T00:26:20;102787.72;;;4.20;83.08
4273;BME280;63887;53.656;9.810;2023-05-03T00:28:46;102792.91;;;4.18;83.48
4273;BME280;63887;53.656;9.810;2023-05-03T00:31:12;102797.25;;;4.24;83.57
4273;BME280;63887;53.656;9.810;2023-05-03T00:33:39;102802.38;;;4.07;84.46
4273;BME280;63887;53.656;9.810;2023-05-03T00:36:06;102790.34;;;4.23;83.72
4273;BME280;63887;53.656;9.810;2023-05-03T00:38:32;102792.00;;;4.12;83.09
4273;BME280;63887;53.656;9.810;2023-05-03T00:40:58;102782.50;;;4.15;83.03
4273;BME280;63887;53.656;9.810;2023-05-03T00:43:26;102786.00;;;4.21;83.25
4273;BME280;63887;53.656;9.810;2023-05-03T00:45:52;102791.22;;;4.31;82.04
4273;BME280;63887;53.656;9.810;2023-05-03T00:48:19;102788.66;;;4.40;81.40
4273;BME280;63887;53.656;9.810;2023-05-03T00:50:45;102779.22;;;4.62;80.44
4273;BME280;63887;53.656;9.810;2023-05-03T00:53:12;102787.00;;;4.62;79.83
4273;BME280;63887;53.656;9.810;2023-05-03T00:55:38;102791.19;;;4.19;82.34
4273;BME280;63887;53.656;9.810;2023-05-03T00:58:05;102793.66;;;3.95;83.60
4273;BME280;63887;53.656;9.810;2023-05-03T01:00:32;102791.06;;;3.93;84.17
4273;BME280;63887;53.656;9.810;2023-05-03T01:02:59;102786.78;;;4.03;83.34
4273;BME280;63887;53.656;9.810;2023-05-03T01:05:26;102783.50;;;4.46;81.23
4273;BME280;63887;53.656;9.810;2023-05-03T01:07:55;102787.78;;;4.34;81.89
4273;BME280;63887;53.656;9.810;2023-05-03T01:10:30;102784.22;;;4.15;82.66
4273;BME280;63887;53.656;9.810;2023-05-03T01:13:00;102794.59;;;4.04;83.85
4273;BME280;63887;53.656;9.810;2023-05-03T01:15:37;102794.63;;;4.15;82.72
4273;BME280;63887;53.656;9.810;2023-05-03T01:18:06;102788.63;;;4.31;81.77
4273;BME280;63887;53.656;9.810;2023-05-03T01:20:36;102791.22;;;4.31;82.10
4273;BME280;63887;53.656;9.810;2023-05-03T01:23:04;102798.06;;;4.14;83.17
4273;BME280;63887;53.656;9.810;2023-05-03T01:25:32;102804.97;;;4.09;84.12
4273;BME280;63887;53.656;9.810;2023-05-03T01:27:58;102801.50;;;4.04;85.30
4273;BME280;63887;53.656;9.810;2023-05-03T01:30:26;102797.31;;;4.44;83.69
4273;BME280;63887;53.656;9.810;2023-05-03T01:32:55;102799.97;;;4.52;84.09
4273;BME280;63887;53.656;9.810;2023-05-03T01:35:25;102795.72;;;4.96;80.15
4273;BME280;63887;53.656;9.810;2023-05-03T01:37:54;102800.06;;;5.08;80.01
4273;BME280;63887;53.656;9.810;2023-05-03T01:40:21;102798.31;;;5.34;78.00
4273;BME280;63887;53.656;9.810;2023-05-03T01:42:49;102803.53;;;5.07;80.78
4273;BME280;63887;53.656;9.810;2023-05-03T01:45:16;102800.09;;;5.22;79.23
4273;BME280;63887;53.656;9.810;2023-05-03T01:47:43;102805.25;;;5.17;79.04
4273;BME280;63887;53.656;9.810;2023-05-03T01:50:09;102810.47;;;5.11;79.96
4273;BME280;63887;53.656;9.810;2023-05-03T01:52:35;102802.66;;;5.45;77.84
4273;BME280;63887;53.656;9.810;2023-05-03T01:55:02;102811.34;;;5.24;78.10
4273;BME280;63887;53.656;9.810;2023-05-03T01:57:28;102807.88;;;5.09;80.37
4273;BME280;63887;53.656;9.810;2023-05-03T01:59:56;102814.84;;;5.21;79.55
4273;BME280;63887;53.656;9.810;2023-05-03T02:02:22;102813.97;;;5.25;79.61
4273;BME280;63887;53.656;9.810;2023-05-03T02:04:48;102808.75;;;5.12;80.01
4273;BME280;63887;53.656;9.810;2023-05-03T02:07:15;102802.69;;;5.51;78.07
4273;BME280;63887;53.656;9.810;2023-05-03T02:09:41;102807.88;;;5.31;80.22
4273;BME280;63887;53.656;9.810;2023-05-03T02:12:07;102810.44;;;5.05;80.14
4273;BME280;63887;53.656;9.810;2023-05-03T02:14:35;102817.38;;;4.85;82.27
4273;BME280;63887;53.656;9.810;2023-05-03T02:17:03;102817.34;;;4.68;84.05
4273;BME280;63887;53.656;9.810;2023-05-03T02:19:32;102821.66;;;4.75;83.25
4273;BME280;63887;53.656;9.810;2023-05-03T02:21:58;102824.28;;;4.75;83.18
4273;BME280;63887;53.656;9.810;2023-05-03T02:24:24;102825.13;;;4.75;83.64
4273;BME280;63887;53.656;9.810;2023-05-03T02:26:51;102827.72;;;4.71;84.41
4273;BME280;63887;53.656;9.810;2023-05-03T02:29:17;102831.28;;;5.11;83.01
4273;BME280;63887;53.656;9.810;2023-05-03T02:31:43;102826.97;;;5.39;80.89
4273;BME280;63887;53.656;9.810;2023-05-03T02:34:11;102827.81;;;5.07;83.02
4273;BME280;63887;53.656;9.810;2023-05-03T02:36:37;102831.28;;;5.11;83.00
4273;BME280;63887;53.656;9.810;2023-05-03T02:39:04;102839.97;;;5.34;81.09
4273;BME280;63887;53.656;9.810;2023-05-03T02:41:30;102839.13;;;5.37;81.57
4273;BME280;63887;53.656;9.810;2023-05-03T02:43:56;102839.97;;;5.22;82.88
4273;BME280;63887;53.656;9.810;2023-05-03T02:46:23;102837.34;;;5.02;82.89
4273;BME280;63887;53.656;9.810;2023-05-03T02:48:49;102835.63;;;5.12;83.02
4273;BME280;63887;53.656;9.810;2023-05-03T02:51:17;102843.41;;;5.14;82.90
4273;BME280;63887;53.656;9.810;2023-05-03T02:53:43;102827.84;;;5.24;82.30
4273;BME280;63887;53.656;9.810;2023-05-03T02:56:09;102832.19;;;5.36;81.68
4273;BME280;63887;53.656;9.810;2023-05-03T02:58:36;102833.03;;;5.27;83.41
4273;BME280;63887;53.656;9.810;2023-05-03T03:01:02;102833.03;;;5.53;81.01
4273;BME280;63887;53.656;9.810;2023-05-03T03:03:28;102833.03;;;5.21;83.14
4273;BME280;63887;53.656;9.810;2023-05-03T03:05:54;102833.03;;;5.06;84.29
4273;BME280;63887;53.656;9.810;2023-05-03T03:08:22;102833.00;;;5.17;84.89
4273;BME280;63887;53.656;9.810;2023-05-03T03:10:48;102836.50;;;5.06;85.15
4273;BME280;63887;53.656;9.810;2023-05-03T03:13:14;102833.03;;;5.07;84.74
4273;BME280;63887;53.656;9.810;2023-05-03T03:15:41;102827.81;;;5.47;81.86
4273;BME280;63887;53.656;9.810;2023-05-03T03:18:07;102827.81;;;5.29;83.22
4273;BME280;63887;53.656;9.810;2023-05-03T03:20:33;102833.00;;;5.35;81.96
4273;BME280;63887;53.656;9.810;2023-05-03T03:23:00;102831.28;;;5.55;82.02
4273;BME280;63887;53.656;9.810;2023-05-03T03:25:27;102827.81;;;5.47;82.50
4273;BME280;63887;53.656;9.810;2023-05-03T03:27:54;102834.78;;;5.54;82.60
4273;BME280;63887;53.656;9.810;2023-05-03T03:30:20;102839.91;;;5.80;80.81
4273;BME280;63887;53.656;9.810;2023-05-03T03:32:46;102835.63;;;5.70;81.27
4273;BME280;63887;53.656;9.810;2023-05-03T03:35:12;102836.50;;;5.51;83.05
4273;BME280;63887;53.656;9.810;2023-05-03T03:37:39;102830.41;;;5.64;80.58
4273;BME280;63887;53.656;9.810;2023-05-03T03:40:05;102833.91;;;5.23;83.04
4273;BME280;63887;53.656;9.810;2023-05-03T03:42:34;102826.97;;;5.27;82.56
4273;BME280;63887;53.656;9.810;2023-05-03T03:45:00;102828.69;;;5.58;81.61
4273;BME280;63887;53.656;9.810;2023-05-03T03:47:27;102825.22;;;5.30;82.36
4273;BME280;63887;53.656;9.810;2023-05-03T03:49:53;102828.69;;;5.08;84.56
4273;BME280;63887;53.656;9.810;2023-05-03T03:52:19;102826.06;;;5.16;84.53
4273;BME280;63887;53.656;9.810;2023-05-03T03:54:45;102827.81;;;5.29;83.52
4273;BME280;63887;53.656;9.810;2023-05-03T03:57:12;102826.94;;;5.63;82.47
4273;BME280;63887;53.656;9.810;2023-05-03T03:59:39;102825.22;;;5.56;83.06
4273;BME280;63887;53.656;9.810;2023-05-03T04:02:06;102827.81;;;5.56;83.28
4273;BME280;63887;53.656;9.810;2023-05-03T04:04:32;102824.34;;;5.59;83.13
4273;BME280;63887;53.656;9.810;2023-05-03T04:06:59;102826.94;;;5.48;82.15
4273;BME280;63887;53.656;9.810;2023-05-03T04:09:25;102828.66;;;6.00;81.32
4273;BME280;63887;53.656;9.810;2023-05-03T04:11:51;102825.19;;;5.85;81.09
4273;BME280;63887;53.656;9.810;2023-05-03T04:14:18;102825.22;;;5.56;83.57
4273;BME280;63887;53.656;9.810;2023-05-03T04:16:46;102836.50;;;5.32;86.00
4273;BME280;63887;53.656;9.810;2023-05-03T04:19:12;102838.22;;;5.68;83.49
4273;BME280;63887;53.656;9.810;2023-05-03T04:21:38;102835.66;;;5.52;82.57
4273;BME280;63887;53.656;9.810;2023-05-03T04:24:05;102829.50;;;5.80;82.52
4273;BME280;63887;53.656;9.810;2023-05-03T04:26:31;102835.59;;;5.85;82.31
4273;BME280;63887;53.656;9.810;2023-05-03T04:28:58;102834.75;;;5.82;83.14
4273;BME280;63887;53.656;9.810;2023-05-03T04:31:24;102828.66;;;6.00;81.55
4273;BME280;63887;53.656;9.810;2023-05-03T04:33:52;102838.19;;;5.87;82.73
4273;BME280;63887;53.656;9.810;2023-05-03T04:36:18;102842.56;;;5.54;85.94
4273;BME280;63887;53.656;9.810;2023-05-03T04:38:49;102843.41;;;6.04;81.84
4273;BME280;63887;53.656;9.810;2023-05-03T04:41:15;102839.06;;;6.10;80.85
4273;BME280;63887;53.656;9.810;2023-05-03T04:43:42;102849.44;;;6.16;81.61
4273;BME280;63887;53.656;9.810;2023-05-03T04:46:08;102857.28;;;6.04;81.93
4273;BME280;63887;53.656;9.810;2023-05-03T04:48:35;102851.25;;;5.97;82.57
4273;BME280;63887;53.656;9.810;2023-05-03T04:51:02;102855.56;;;5.88;83.47
4273;BME280;63887;53.656;9.810;2023-05-03T04:53:29;102854.69;;;6.10;82.95
4273;BME280;63887;53.656;9.810;2023-05-03T04:55:55;102859.84;;;6.21;83.92
4273;BME280;63887;53.656;9.810;2023-05-03T04:58:22;102865.91;;;6.27;84.20
4273;BME280;63887;53.656;9.810;2023-05-03T05:00:48;102865.88;;;6.43;82.23
4273;BME280;63887;53.656;9.810;2023-05-03T05:03:15;102869.22;;;6.74;81.18
4273;BME280;63887;53.656;9.810;2023-05-03T05:05:41;102861.38;;;6.68;81.13
4273;BME280;63887;53.656;9.810;2023-05-03T05:08:09;102868.19;;;6.96;78.34
4273;BME280;63887;53.656;9.810;2023-05-03T05:10:35;102871.69;;;7.00;78.84
4273;BME280;63887;53.656;9.810;2023-05-03T05:13:02;102873.97;;;7.45;76.67
4273;BME280;63887;53.656;9.810;2023-05-03T05:15:28;102877.84;;;6.82;80.30
4273;BME280;63887;53.656;9.810;2023-05-03T05:17:55;102878.56;;;7.10;78.96
4273;BME280;63887;53.656;9.810;2023-05-03T05:20:22;102876.69;;;7.32;77.15
4273;BME280;63887;53.656;9.810;2023-05-03T05:22:48;102877.66;;;7.17;77.22
4273;BME280;63887;53.656;9.810;2023-05-03T05:25:16;102886.19;;;7.37;78.69
4273;BME280;63887;53.656;9.810;2023-05-03T05:27:42;102882.53;;;7.58;77.42
4273;BME280;63887;53.656;9.810;2023-05-03T05:30:08;102885.91;;;7.71;76.97
4273;BME280;63887;53.656;9.810;2023-05-03T05:32:35;102889.38;;;7.73;77.30
4273;BME280;63887;53.656;9.810;2023-05-03T05:35:01;102891.13;;;7.75;75.94
4273;BME280;63887;53.656;9.810;2023-05-03T05:37:28;102883.94;;;7.96;75.96
4273;BME280;63887;53.656;9.810;2023-05-03T05:39:54;102883.84;;;8.06;74.45
4273;BME280;63887;53.656;9.810;2023-05-03T05:42:22;102887.44;;;7.96;74.06
4273;BME280;63887;53.656;9.810;2023-05-03T05:44:48;102885.16;;;8.49;69.62
4273;BME280;63887;53.656;9.810;2023-05-03T05:47:16;102887.03;;;8.33;72.87
4273;BME280;63887;53.656;9.810;2023-05-03T05:49:42;102891.34;;;8.42;71.69
4273;BME280;63887;53.656;9.810;2023-05-03T05:52:08;102886.34;;;8.89;70.25
4273;BME280;63887;53.656;9.810;2023-05-03T05:54:35;102897.44;;;9.64;66.21
4273;BME280;63887;53.656;9.810;2023-05-03T05:57:01;102888.94;;;9.52;66.10
4273;BME280;63887;53.656;9.810;2023-05-03T05:59:29;102891.84;;;9.86;63.51
4273;BME280;63887;53.656;9.810;2023-05-03T06:01:55;102892.28;;;10.08;62.13
4273;BME280;63887;53.656;9.810;2023-05-03T06:04:23;102896.94;;;9.93;63.04
4273;BME280;63887;53.656;9.810;2023-05-03T06:06:50;102902.88;;;10.04;64.40
4273;BME280;63887;53.656;9.810;2023-05-03T06:09:16;102899.69;;;10.78;62.23
4273;BME280;63887;53.656;9.810;2023-05-03T06:11:42;102898.47;;;11.32;59.94
4273;BME280;63887;53.656;9.810;2023-05-03T06:14:09;102903.72;;;11.32;57.94
4273;BME280;63887;53.656;9.810;2023-05-03T06:16:37;102910.66;;;10.96;58.91
4273;BME280;63887;53.656;9.810;2023-05-03T06:19:03;102908.25;;;10.86;60.07
4273;BME280;63887;53.656;9.810;2023-05-03T06:21:30;102903.81;;;11.28;58.32
4273;BME280;63887;53.656;9.810;2023-05-03T06:23:56;102910.53;;;11.40;56.88
4273;BME280;63887;53.656;9.810;2023-05-03T06:26:23;102912.47;;;11.69;55.56
4273;BME280;63887;53.656;9.810;2023-05-03T06:28:49;102920.06;;;11.44;54.98
4273;BME280;63887;53.656;9.810;2023-05-03T06:31:16;102920.38;;;11.31;56.03
4273;BME280;63887;53.656;9.810;2023-05-03T06:33:44;102920.69;;;11.55;53.90
4273;BME280;63887;53.656;9.810;2023-05-03T06:36:10;102916.25;;;11.57;56.32
4273;BME280;63887;53.656;9.810;2023-05-03T06:38:37;102916.72;;;10.98;59.85
4273;BME280;63887;53.656;9.810;2023-05-03T06:41:03;102919.28;;;11.40;54.09
4273;BME280;63887;53.656;9.810;2023-05-03T06:43:29;102913.69;;;11.18;53.88
4273;BME280;63887;53.656;9.810;2023-05-03T06:45:55;102917.72;;;10.51;57.10
4273;BME280;63887;53.656;9.810;2023-05-03T06:48:22;102911.47;;;10.98;55.32
4273;BME280;63887;53.656;9.810;2023-05-03T06:50:49;102908.31;;;11.58;53.04
4273;BME280;63887;53.656;9.810;2023-05-03T06:53:15;102916.22;;;11.58;54.01
4273;BME280;63887;53.656;9.810;2023-05-03T06:55:42;102921.09;;;11.74;53.13
4273;BME280;63887;53.656;9.810;2023-05-03T06:58:08;102916.78;;;12.07;51.82
4273;BME280;63887;53.656;9.810;2023-05-03T07:00:35;102910.25;;;12.82;52.31
4273;BME280;63887;53.656;9.810;2023-05-03T07:03:03;102910.31;;;13.64;46.33
4273;BME280;63887;53.656;9.810;2023-05-03T07:05:29;102908.84;;;14.80;42.87
4273;BME280;63887;53.656;9.810;2023-05-03T07:07:57;102905.72;;;15.58;40.93
4273;BME280;63887;53.656;9.810;2023-05-03T07:10:23;102900.81;;;16.71;36.85
4273;BME280;63887;53.656;9.810;2023-05-03T07:12:52;102906.25;;;16.87;35.26
4273;BME280;63887;53.656;9.810;2023-05-03T07:15:18;102899.41;;;18.07;36.43
4273;BME280;63887;53.656;9.810;2023-05-03T07:17:44;102905.22;;;18.31;33.06
4273;BME280;63887;53.656;9.810;2023-05-03T07:20:11;102906.19;;;17.61;34.11
4273;BME280;63887;53.656;9.810;2023-05-03T07:22:37;102909.59;;;18.14;34.86
4273;BME280;63887;53.656;9.810;2023-05-03T07:25:05;102912.13;;;18.17;35.19
4273;BME280;63887;53.656;9.810;2023-05-03T07:27:32;102911.66;;;15.85;38.39
4273;BME280;63887;53.656;9.810;2023-05-03T07:29:58;102907.75;;;15.30;40.48
4273;BME280;63887;53.656;9.810;2023-05-03T07:32:25;102907.16;;;13.80;45.06
4273;BME280;63887;53.656;9.810;2023-05-03T07:34:52;102911.63;;;13.23;45.84
4273;BME280;63887;53.656;9.810;2023-05-03T07:37:18;102918.72;;;12.62;46.69
4273;BME280;63887;53.656;9.810;2023-05-03T07:39:45;102916.66;;;12.11;48.11
4273;BME280;63887;53.656;9.810;2023-05-03T07:42:13;102922.69;;;11.44;52.78
4273;BME280;63887;53.656;9.810;2023-05-03T07:44:39;102921.59;;;11.89;48.82
4273;BME280;63887;53.656;9.810;2023-05-03T07:47:05;102913.56;;;11.23;50.30
4273;BME280;63887;53.656;9.810;2023-05-03T07:49:32;102917.97;;;11.58;49.16
4273;BME280;63887;53.656;9.810;2023-05-03T07:52:00;102922.34;;;11.22;51.14
4273;BME280;63887;53.656;9.810;2023-05-03T07:54:27;102916.03;;;11.29;50.54
4273;BME280;63887;53.656;9.810;2023-05-03T07:56:53;102913.94;;;11.06;52.19
4273;BME280;63887;53.656;9.810;2023-05-03T07:59:21;102910.78;;;11.29;50.58
4273;BME280;63887;53.656;9.810;2023-05-03T08:01:47;102920.19;;;11.02;52.60
4273;BME280;63887;53.656;9.810;2023-05-03T08:04:13;102918.03;;;11.19;50.54
4273;BME280;63887;53.656;9.810;2023-05-03T08:06:39;102923.97;;;11.27;49.46
4273;BME280;63887;53.656;9.810;2023-05-03T08:09:07;102930.00;;;10.92;50.36
4273;BME280;63887;53.656;9.810;2023-05-03T08:11:33;102926.41;;;10.96;52.79
4273;BME280;63887;53.656;9.810;2023-05-03T08:13:59;102920.78;;;11.13;50.78
4273;BME280;63887;53.656;9.810;2023-05-03T08:16:27;102921.25;;;11.32;50.16
4273;BME280;63887;53.656;9.810;2023-05-03T08:18:53;102924.34;;;11.85;46.90
4273;BME280;63887;53.656;9.810;2023-05-03T08:21:19;102927.84;;;11.85;45.05
4273;BME280;63887;53.656;9.810;2023-05-03T08:23:48;102925.59;;;11.69;44.82
4273;BME280;63887;53.656;9.810;2023-05-03T08:26:15;102921.34;;;11.64;45.41
4273;BME280;63887;53.656;9.810;2023-05-03T08:28:41;102929.13;;;11.68;47.32
4273;BME280;63887;53.656;9.810;2023-05-03T08:31:07;102925.81;;;11.97;45.80
4273;BME280;63887;53.656;9.810;2023-05-03T08:33:35;102926.53;;;12.02;45.37
4273;BME280;63887;53.656;9.810;2023-05-03T08:36:01;102922.41;;;12.26;43.75
4273;BME280;63887;53.656;9.810;2023-05-03T08:38:28;102918.34;;;11.80;48.90
4273;BME280;63887;53.656;9.810;2023-05-03T08:40:56;102932.47;;;12.10;45.25
4273;BME280;63887;53.656;9.810;2023-05-03T08:43:24;102927.97;;;12.46;46.23
4273;BME280;63887;53.656;9.810;2023-05-03T08:45:52;102925.19;;;12.52;43.81
4273;BME280;63887;53.656;9.810;2023-05-03T08:48:18;102918.16;;;12.20;45.59
4273;BME280;63887;53.656;9.810;2023-05-03T08:50:46;102925.66;;;12.34;44.32
4273;BME280;63887;53.656;9.810;2023-05-03T08:53:13;102931.16;;;11.93;44.88
4273;BME280;63887;53.656;9.810;2023-05-03T08:55:40;102925.91;;;11.93;44.68
4273;BME280;63887;53.656;9.810;2023-05-03T08:58:06;102932.50;;;11.73;45.33
4273;BME280;63887;53.656;9.810;2023-05-03T09:00:36;102928.94;;;11.75;45.33
4273;BME280;63887;53.656;9.810;2023-05-03T09:03:02;102934.19;;;11.77;44.97
4273;BME280;63887;53.656;9.810;2023-05-03T09:05:30;102936.16;;;11.31;48.49
4273;BME280;63887;53.656;9.810;2023-05-03T09:08:01;102940.94;;;11.51;46.74
4273;BME280;63887;53.656;9.810;2023-05-03T09:10:27;102948.34;;;11.70;45.01
4273;BME280;63887;53.656;9.810;2023-05-03T09:12:56;102947.94;;;11.88;45.07
4273;BME280;63887;53.656;9.810;2023-05-03T09:15:23;102936.97;;;12.05;45.59
4273;BME280;63887;53.656;9.810;2023-05-03T09:18:05;102933.75;;;12.28;44.93
4273;BME280;63887;53.656;9.810;2023-05-03T09:20:32;102932.78;;;12.30;44.02
4273;BME280;63887;53.656;9.810;2023-05-03T09:23:00;102940.72;;;12.29;44.55
4273;BME280;63887;53.656;9.810;2023-05-03T09:25:38;102939.16;;;12.23;44.57
4273;BME280;63887;53.656;9.810;2023-05-03T09:28:05;102939.44;;;11.77;45.42
4273;BME280;63887;53.656;9.810;2023-05-03T09:30:31;102942.31;;;11.66;48.11
4273;BME280;63887;53.656;9.810;2023-05-03T09:32:57;102941.41;;;11.67;47.84
4273;BME280;63887;53.656;9.810;2023-05-03T09:35:24;102941.72;;;11.55;48.98
4273;BME280;63887;53.656;9.810;2023-05-03T09:37:50;102943.44;;;11.56;49.83
4273;BME280;63887;53.656;9.810;2023-05-03T09:40:18;102943.31;;;11.62;48.93
4273;BME280;63887;53.656;9.810;2023-05-03T09:45:25;102946.25;;;11.85;46.17
4273;BME280;63887;53.656;9.810;2023-05-03T09:47:52;102941.00;;;11.85;46.77
4273;BME280;63887;53.656;9.810;2023-05-03T09:50:19;102936.91;;;11.72;46.10
4273;BME280;63887;53.656;9.810;2023-05-03T09:52:46;102939.69;;;12.02;45.27
4273;BME280;63887;53.656;9.810;2023-05-03T09:55:14;102938.31;;;11.87;45.65
4273;BME280;63887;53.656;9.810;2023-05-03T09:57:42;102939.34;;;12.15;45.70
4273;BME280;63887;53.656;9.810;2023-05-03T10:00:11;102945.31;;;12.22;44.04
4273;BME280;63887;53.656;9.810;2023-05-03T10:02:40;102945.47;;;12.16;44.23
4273;BME280;63887;53.656;9.810;2023-05-03T10:05:07;102939.78;;;12.31;43.29
4273;BME280;63887;53.656;9.810;2023-05-03T10:07:36;102941.72;;;12.24;43.44
4273;BME280;63887;53.656;9.810;2023-05-03T10:10:04;102933.69;;;11.97;44.10
4273;BME280;63887;53.656;9.810;2023-05-03T10:12:32;102928.63;;;11.89;43.66
4273;BME280;63887;53.656;9.810;2023-05-03T10:15:01;102924.09;;;11.58;45.46
4273;BME280;63887;53.656;9.810;2023-05-03T10:17:30;102926.66;;;12.30;47.99
4273;BME280;63887;53.656;9.810;2023-05-03T10:19:59;102922.97;;;12.37;47.07
4273;BME280;63887;53.656;9.810;2023-05-03T10:22:30;102918.78;;;12.90;42.94
4273;BME280;63887;53.656;9.810;2023-05-03T10:25:06;102916.53;;;13.35;44.62
4273;BME280;63887;53.656;9.810;2023-05-03T10:27:39;102914.47;;;12.88;42.63
4273;BME280;63887;53.656;9.810;2023-05-03T10:30:08;102918.47;;;13.01;41.66
4273;BME280;63887;53.656;9.810;2023-05-03T10:32:52;102915.94;;;12.98;41.74
4273;BME280;63887;53.656;9.810;2023-05-03T10:35:19;102911.56;;;12.97;44.20
4273;BME280;63887;53.656;9.810;2023-05-03T10:37:46;102906.06;;;12.75;42.66
4273;BME280;63887;53.656;9.810;2023-05-03T10:40:14;102910.72;;;12.67;43.46
4273;BME280;63887;53.656;9.810;2023-05-03T10:42:42;102903.25;;;12.51;44.10
4273;BME280;63887;53.656;9.810;2023-05-03T10:45:18;102908.72;;;12.13;46.58
4273;BME280;63887;53.656;9.810;2023-05-03T10:50:26;102904.13;;;12.81;44.03
4273;BME280;63887;53.656;9.810;2023-05-03T10:52:52;102907.22;;;12.66;44.27
4273;BME280;63887;53.656;9.810;2023-05-03T10:55:19;102910.31;;;12.80;44.98
4273;BME280;63887;53.656;9.810;2023-05-03T10:57:46;102910.84;;;12.62;46.07
4273;BME280;63887;53.656;9.810;2023-05-03T11:00:15;102911.59;;;12.67;44.51
4273;BME280;63887;53.656;9.810;2023-05-03T11:02:54;102904.53;;;12.97;44.76
4273;BME280;63887;53.656;9.810;2023-05-03T11:05:28;102898.22;;;13.03;43.24
4273;BME280;63887;53.656;9.810;2023-05-03T11:08:06;102902.38;;;12.82;42.54
4273;BME280;63887;53.656;9.810;2023-05-03T11:10:33;102916.19;;;12.89;43.20
4273;BME280;63887;53.656;9.810;2023-05-03T11:12:59;102905.94;;;12.79;42.89
4273;BME280;63887;53.656;9.810;2023-05-03T11:15:27;102909.09;;;12.61;43.98
4273;BME280;63887;53.656;9.810;2023-05-03T11:17:53;102909.16;;;12.89;42.75
4273;BME280;63887;53.656;9.810;2023-05-03T11:20:20;102896.44;;;12.74;43.29
4273;BME280;63887;53.656;9.810;2023-05-03T11:22:46;102904.50;;;12.69;44.67
4273;BME280;63887;53.656;9.810;2023-05-03T11:25:12;102900.53;;;12.54;46.40
4273;BME280;63887;53.656;9.810;2023-05-03T11:27:39;102905.88;;;13.10;43.54
4273;BME280;63887;53.656;9.810;2023-05-03T11:30:06;102899.38;;;13.22;43.21
4273;BME280;63887;53.656;9.810;2023-05-03T11:32:35;102901.53;;;13.37;42.23
4273;BME280;63887;53.656;9.810;2023-05-03T11:35:02;102908.94;;;13.53;42.30
4273;BME280;63887;53.656;9.810;2023-05-03T11:37:29;102906.94;;;13.33;42.26
4273;BME280;63887;53.656;9.810;2023-05-03T11:39:56;102902.53;;;13.33;42.97
4273;BME280;63887;53.656;9.810;2023-05-03T11:42:22;102899.75;;;13.38;42.95
4273;BME280;63887;53.656;9.810;2023-05-03T11:44:50;102900.16;;;13.26;44.42
4273;BME280;63887;53.656;9.810;2023-05-03T11:47:16;102904.03;;;13.42;44.85
4273;BME280;63887;53.656;9.810;2023-05-03T11:49:51;102891.31;;;13.55;42.52
4273;BME280;63887;53.656;9.810;2023-05-03T11:52:19;102892.13;;;13.57;45.25
4273;BME280;63887;53.656;9.810;2023-05-03T11:54:45;102895.72;;;13.54;43.73
4273;BME280;63887;53.656;9.810;2023-05-03T11:57:12;102897.00;;;13.69;43.58
4273;BME280;63887;53.656;9.810;2023-05-03T11:59:38;102892.53;;;13.45;43.83
4273;BME280;63887;53.656;9.810;2023-05-03T12:02:05;102899.38;;;12.93;46.12
4273;BME280;63887;53.656;9.810;2023-05-03T12:04:31;102893.44;;;13.43;43.08
4273;BME280;63887;53.656;9.810;2023-05-03T12:06:59;102890.66;;;13.20;42.86
4273;BME280;63887;53.656;9.810;2023-05-03T12:09:25;102896.03;;;12.58;44.00
4273;BME280;63887;53.656;9.810;2023-05-03T12:11:53;102891.50;;;12.63;43.80
4273;BME280;63887;53.656;9.810;2023-05-03T12:14:19;102883.94;;;12.52;43.93
4273;BME280;63887;53.656;9.810;2023-05-03T12:16:46;102891.00;;;12.50;43.95
4273;BME280;63887;53.656;9.810;2023-05-03T12:19:21;102888.38;;;12.50;43.79
4273;BME280;63887;53.656;9.810;2023-05-03T12:21:48;102890.09;;;12.51;43.04
4273;BME280;63887;53.656;9.810;2023-05-03T12:24:15;102889.84;;;12.30;45.20
4273;BME280;63887;53.656;9.810;2023-05-03T12:26:43;102876.44;;;12.39;44.98
4273;BME280;63887;53.656;9.810;2023-05-03T12:29:09;102869.50;;;12.66;47.19
4273;BME280;63887;53.656;9.810;2023-05-03T12:31:36;102873.66;;;12.43;45.63
4273;BME280;63887;53.656;9.810;2023-05-03T12:34:02;102868.75;;;12.61;47.16
4273;BME280;63887;53.656;9.810;2023-05-03T12:36:29;102868.69;;;12.92;45.29
4273;BME280;63887;53.656;9.810;2023-05-03T12:38:56;102868.31;;;13.04;44.35
4273;BME280;63887;53.656;9.810;2023-05-03T12:41:23;102866.06;;;12.92;44.35
4273;BME280;63887;53.656;9.810;2023-05-03T12:43:51;102871.53;;;13.13;44.59
4273;BME280;63887;53.656;9.810;2023-05-03T12:46:18;102859.75;;;12.97;45.18
4273;BME280;63887;53.656;9.810;2023-05-03T12:48:44;102865.88;;;12.98;46.19
4273;BME280;63887;53.656;9.810;2023-05-03T12:51:11;102866.25;;;13.13;43.72
4273;BME280;63887;53.656;9.810;2023-05-03T12:53:38;102856.00;;;13.04;43.11
4273;BME280;63887;53.656;9.810;2023-05-03T12:56:05;102850.63;;;12.79;46.48
4273;BME280;63887;53.656;9.810;2023-05-03T12:58:32;102849.94;;;13.30;43.95
4273;BME280;63887;53.656;9.810;2023-05-03T13:00:59;102853.63;;;13.51;42.92
4273;BME280;63887;53.656;9.810;2023-05-03T13:03:25;102856.72;;;13.64;44.73
4273;BME280;63887;53.656;9.810;2023-05-03T13:05:51;102855.28;;;13.54;45.57
4273;BME280;63887;53.656;9.810;2023-05-03T13:08:18;102850.81;;;13.31;46.02
4273;BME280;63887;53.656;9.810;2023-05-03T13:10:45;102852.91;;;13.20;45.39